sensor_id;sensor_type;location;lat;lon;timestamp;pressure;altitude;pressure_sealevel;temperature;humidity
8398;BME280;4236;54.504;9.588;2023-09-12T00:01:15;101206.97;;;20.78;100.00
8398;BME280;4236;54.504;9.588;2023-09-12T00:03:43;101207.22;;;20.77;100.00
8398;BME280;4236;54.504;9.588;2023-09-12T00:06:11;101210.44;;;20.74;100.00
8398;BME280;4236;54.504;9.588;2023-09-12T00:08:40;101215.28;;;20.72;100.00
8398;BME280;4236;54.504;9.588;2023-09-12T00:11:10;101209.88;;;20.72;100.00
8398;BME280;4236;54.504;9.588;2023-09-12T00:13:38;101220.41;;;20.68;100.00
8398;BME280;4236;54.504;9.588;2023-09-12T00:16:07;101212.13;;;20.58;100.00
8398;BME280;4236;54.504;9.588;2023-09-12T00:18:36;101222.22;;;20.63;100.00
8398;BME280;4236;54.504;9.588;2023-09-12T00:21:04;101226.31;;;20.65;100.00
8398;BME280;4236;54.504;9.588;2023-09-12T00:23:31;101230.41;;;20.68;100.00
8398;BME280;4236;54.504;9.588;2023-09-12T00:26:00;101231.78;;;20.70;100.00
8398;BME280;4236;54.504;9.588;2023-09-12T00:28:28;101232.06;;;20.69;100.00
8398;BME280;4236;54.504;9.588;2023-09-12T00:30:56;101230.91;;;20.65;100.00
8398;BME280;4236;54.504;9.588;2023-09-12T00:33:23;101222.53;;;20.66;100.00
8398;BME280;4236;54.504;9.588;2023-09-12T00:35:51;101227.13;;;20.66;100.00
8398;BME280;4236;54.504;9.588;2023-09-12T00:38:19;101219.56;;;20.68;100.00
8398;BME280;4236;54.504;9.588;2023-09-12T00:40:46;101220.66;;;20.67;100.00
8398;BME280;4236;54.504;9.588;2023-09-12T00:43:16;101218.44;;;20.64;100.00
8398;BME280;4236;54.504;9.588;2023-09-12T00:45:44;101216.75;;;20.58;100.00
8398;BME280;4236;54.504;9.588;2023-09-12T00:48:13;101213.44;;;20.56;100.00
8398;BME280;4236;54.504;9.588;2023-09-12T00:50:43;101211.84;;;20.55;100.00
8398;BME280;4236;54.504;9.588;2023-09-12T00:53:11;101200.41;;;20.53;100.00
8398;BME280;4236;54.504;9.588;2023-09-12T00:55:42;101202.00;;;20.49;100.00
8398;BME280;4236;54.504;9.588;2023-09-12T00:58:13;101224.47;;;20.49;100.00
8398;BME280;4236;54.504;9.588;2023-09-12T01:00:43;101209.28;;;20.48;100.00
8398;BME280;4236;54.504;9.588;2023-09-12T01:03:11;101222.56;;;20.50;100.00
8398;BME280;4236;54.504;9.588;2023-09-12T01:05:41;101209.28;;;20.48;100.00
8398;BME280;4236;54.504;9.588;2023-09-12T01:08:09;101202.56;;;20.51;100.00
8398;BME280;4236;54.504;9.588;2023-09-12T01:10:37;101207.72;;;20.52;100.00
8398;BME280;4236;54.504;9.588;2023-09-12T01:13:05;101199.91;;;20.56;100.00
8398;BME280;4236;54.504;9.588;2023-09-12T01:15:33;101194.25;;;20.57;100.00
8398;BME280;4236;54.504;9.588;2023-09-12T01:18:02;101182.31;;;20.58;100.00
8398;BME280;4236;54.504;9.588;2023-09-12T01:20:32;101189.38;;;20.59;100.00
8398;BME280;4236;54.504;9.588;2023-09-12T01:23:18;101190.44;;;20.58;100.00
8398;BME280;4236;54.504;9.588;2023-09-12T01:26:02;101190.94;;;20.55;100.00
8398;BME280;4236;54.504;9.588;2023-09-12T01:28:35;101193.16;;;20.58;100.00
8398;BME280;4236;54.504;9.588;2023-09-12T01:31:09;101192.59;;;20.56;100.00
8398;BME280;4236;54.504;9.588;2023-09-12T01:33:37;101196.38;;;20.55;100.00
8398;BME280;4236;54.504;9.588;2023-09-12T01:36:05;101192.88;;;20.55;100.00
8398;BME280;4236;54.504;9.588;2023-09-12T01:38:33;101189.84;;;20.51;100.00
8398;BME280;4236;54.504;9.588;2023-09-12T01:41:00;101184.66;;;20.50;100.00
8398;BME280;4236;54.504;9.588;2023-09-12T01:43:29;101187.63;;;20.48;100.00
8398;BME280;4236;54.504;9.588;2023-09-12T01:46:00;101183.53;;;20.46;100.00
8398;BME280;4236;54.504;9.588;2023-09-12T01:48:33;101191.66;;;20.46;100.00
8398;BME280;4236;54.504;9.588;2023-09-12T01:51:03;101189.75;;;20.46;100.00
8398;BME280;4236;54.504;9.588;2023-09-12T01:53:32;101172.69;;;20.46;100.00
8398;BME280;4236;54.504;9.588;2023-09-12T01:56:00;101172.38;;;20.42;100.00
8398;BME280;4236;54.504;9.588;2023-09-12T01:58:28;101167.50;;;20.44;100.00
8398;BME280;4236;54.504;9.588;2023-09-12T02:00:56;101164.47;;;20.40;100.00
8398;BME280;4236;54.504;9.588;2023-09-12T02:03:25;101158.22;;;20.40;100.00
8398;BME280;4236;54.504;9.588;2023-09-12T02:05:53;101165.88;;;20.43;100.00
8398;BME280;4236;54.504;9.588;2023-09-12T02:08:21;101168.91;;;20.47;100.00
8398;BME280;4236;54.504;9.588;2023-09-12T02:10:48;101162.41;;;20.48;100.00
8398;BME280;4236;54.504;9.588;2023-09-12T02:13:16;101163.78;;;20.50;100.00
8398;BME280;4236;54.504;9.588;2023-09-12T02:15:44;101159.44;;;20.49;100.00
8398;BME280;4236;54.504;9.588;2023-09-12T02:18:12;101152.13;;;20.50;100.00
8398;BME280;4236;54.504;9.588;2023-09-12T02:20:41;101164.34;;;20.52;100.00
8398;BME280;4236;54.504;9.588;2023-09-12T02:23:12;101157.06;;;20.53;100.00
8398;BME280;4236;54.504;9.588;2023-09-12T02:25:39;101147.53;;;20.50;100.00
8398;BME280;4236;54.504;9.588;2023-09-12T02:28:07;101161.34;;;20.49;100.00
8398;BME280;4236;54.504;9.588;2023-09-12T02:30:37;101156.44;;;20.46;100.00
8398;BME280;4236;54.504;9.588;2023-09-12T02:33:05;101163.97;;;20.43;100.00
8398;BME280;4236;54.504;9.588;2023-09-12T02:35:33;101158.00;;;20.41;100.00
8398;BME280;4236;54.504;9.588;2023-09-12T02:38:03;101160.72;;;20.41;100.00
8398;BME280;4236;54.504;9.588;2023-09-12T02:40:30;101159.66;;;20.42;100.00
8398;BME280;4236;54.504;9.588;2023-09-12T02:42:58;101182.13;;;20.43;100.00
8398;BME280;4236;54.504;9.588;2023-09-12T02:45:25;101168.34;;;20.45;100.00
8398;BME280;4236;54.504;9.588;2023-09-12T02:47:53;101172.69;;;20.46;100.00
8398;BME280;4236;54.504;9.588;2023-09-12T02:50:21;101168.91;;;20.47;100.00
8398;BME280;4236;54.504;9.588;2023-09-12T02:52:48;101172.44;;;20.47;100.00
8398;BME280;4236;54.504;9.588;2023-09-12T02:55:17;101192.22;;;20.48;100.00
8398;BME280;4236;54.504;9.588;2023-09-12T02:57:45;101180.56;;;20.47;100.00
8398;BME280;4236;54.504;9.588;2023-09-12T03:00:13;101180.56;;;20.47;100.00
8398;BME280;4236;54.504;9.588;2023-09-12T03:02:41;101183.53;;;20.46;100.00
8398;BME280;4236;54.504;9.588;2023-09-12T03:05:09;101184.81;;;20.43;100.00
8398;BME280;4236;54.504;9.588;2023-09-12T03:07:37;101189.69;;;20.41;100.00
8398;BME280;4236;54.504;9.588;2023-09-12T03:10:05;101184.53;;;20.39;100.00
8398;BME280;4236;54.504;9.588;2023-09-12T03:12:35;101179.84;;;20.35;100.00
8398;BME280;4236;54.504;9.588;2023-09-12T03:15:03;101176.31;;;20.34;100.00
8398;BME280;4236;54.504;9.588;2023-09-12T03:17:35;101173.03;;;20.32;100.00
8398;BME280;4236;54.504;9.588;2023-09-12T03:20:03;101174.38;;;20.30;100.00
8398;BME280;4236;54.504;9.588;2023-09-12T03:22:33;101166.75;;;20.27;100.00
8398;BME280;4236;54.504;9.588;2023-09-12T03:25:04;101175.94;;;20.26;100.00
8398;BME280;4236;54.504;9.588;2023-09-12T03:27:33;101175.09;;;20.25;100.00
8398;BME280;4236;54.504;9.588;2023-09-12T03:30:01;101165.00;;;20.21;100.00
8398;BME280;4236;54.504;9.588;2023-09-12T03:32:30;101173.38;;;20.19;100.00
8398;BME280;4236;54.504;9.588;2023-09-12T03:34:57;101170.66;;;20.19;100.00
8398;BME280;4236;54.504;9.588;2023-09-12T03:37:25;101175.50;;;20.17;100.00
8398;BME280;4236;54.504;9.588;2023-09-12T03:39:54;101190.09;;;20.16;100.00
8398;BME280;4236;54.504;9.588;2023-09-12T03:42:21;101203.09;;;20.14;100.00
8398;BME280;4236;54.504;9.588;2023-09-12T03:44:58;101200.03;;;20.11;100.00
8398;BME280;4236;54.504;9.588;2023-09-12T03:47:26;101189.72;;;20.08;100.00
8398;BME280;4236;54.504;9.588;2023-09-12T03:49:54;101195.63;;;20.05;100.00
8398;BME280;4236;54.504;9.588;2023-09-12T03:52:22;101188.81;;;20.02;100.00
8398;BME280;4236;54.504;9.588;2023-09-12T03:54:49;101185.56;;;20.00;100.00
8398;BME280;4236;54.504;9.588;2023-09-12T03:57:17;101187.16;;;20.01;100.00
8398;BME280;4236;54.504;9.588;2023-09-12T03:59:45;101200.72;;;20.01;100.00
8398;BME280;4236;54.504;9.588;2023-09-12T04:02:15;101200.97;;;20.00;100.00
8398;BME280;4236;54.504;9.588;2023-09-12T04:04:43;101195.00;;;19.98;100.00
8398;BME280;4236;54.504;9.588;2023-09-12T04:07:11;101203.59;;;19.95;100.00
8398;BME280;4236;54.504;9.588;2023-09-12T04:09:39;101208.75;;;19.96;100.00
8398;BME280;4236;54.504;9.588;2023-09-12T04:12:07;101203.91;;;19.98;100.00
8398;BME280;4236;54.504;9.588;2023-09-12T04:14:35;101204.16;;;19.97;100.00
8398;BME280;4236;54.504;9.588;2023-09-12T04:17:03;101199.00;;;19.95;100.00
8398;BME280;4236;54.504;9.588;2023-09-12T04:19:36;101198.19;;;19.95;100.00
8398;BME280;4236;54.504;9.588;2023-09-12T04:22:04;101203.00;;;19.93;100.00
8398;BME280;4236;54.504;9.588;2023-09-12T04:24:32;101207.09;;;19.95;100.00
8398;BME280;4236;54.504;9.588;2023-09-12T04:27:00;101199.25;;;19.94;100.00
8398;BME280;4236;54.504;9.588;2023-09-12T04:29:28;101198.19;;;19.95;100.00
8398;BME280;4236;54.504;9.588;2023-09-12T04:31:55;101206.31;;;19.95;100.00
8398;BME280;4236;54.504;9.588;2023-09-12T04:34:26;101209.25;;;19.93;100.00
8398;BME280;4236;54.504;9.588;2023-09-12T04:36:55;101204.41;;;19.95;100.00
8398;BME280;4236;54.504;9.588;2023-09-12T04:39:22;101206.06;;;19.96;100.00
8398;BME280;4236;54.504;9.588;2023-09-12T04:41:50;101199.81;;;19.96;100.00
8398;BME280;4236;54.504;9.588;2023-09-12T04:44:18;101199.81;;;19.96;100.00
8398;BME280;4236;54.504;9.588;2023-09-12T04:46:45;101198.19;;;19.95;100.00
8398;BME280;4236;54.504;9.588;2023-09-12T04:49:13;101195.97;;;19.92;100.00
8398;BME280;4236;54.504;9.588;2023-09-12T04:51:41;101192.19;;;19.93;100.00
8398;BME280;4236;54.504;9.588;2023-09-12T04:54:11;101194.09;;;19.92;100.00
8398;BME280;4236;54.504;9.588;2023-09-12T04:56:39;101183.50;;;19.91;100.00
8398;BME280;4236;54.504;9.588;2023-09-12T04:59:06;101182.69;;;19.90;100.00
8398;BME280;4236;54.504;9.588;2023-09-12T05:01:34;101187.03;;;19.91;100.00
8398;BME280;4236;54.504;9.588;2023-09-12T05:04:02;101190.78;;;19.90;100.00
8398;BME280;4236;54.504;9.588;2023-09-12T05:06:30;101177.84;;;19.92;100.00
8398;BME280;4236;54.504;9.588;2023-09-12T05:08:58;101186.28;;;19.96;100.00
8398;BME280;4236;54.504;9.588;2023-09-12T05:11:27;101190.97;;;20.00;100.00
8398;BME280;4236;54.504;9.588;2023-09-12T05:13:55;101181.25;;;20.04;100.00
8398;BME280;4236;54.504;9.588;2023-09-12T05:16:23;101181.03;;;20.06;100.00
8398;BME280;4236;54.504;9.588;2023-09-12T05:18:50;101183.25;;;20.09;100.00
8398;BME280;4236;54.504;9.588;2023-09-12T05:21:18;101185.69;;;20.10;100.00
8398;BME280;4236;54.504;9.588;2023-09-12T05:23:46;101197.09;;;20.12;100.00
8398;BME280;4236;54.504;9.588;2023-09-12T05:26:14;101193.91;;;20.15;100.00
8398;BME280;4236;54.504;9.588;2023-09-12T05:28:43;101193.91;;;20.15;100.00
8398;BME280;4236;54.504;9.588;2023-09-12T05:31:11;101173.84;;;20.16;100.00
8398;BME280;4236;54.504;9.588;2023-09-12T05:33:38;101180.44;;;20.20;100.00
8398;BME280;4236;54.504;9.588;2023-09-12T05:36:06;101178.28;;;20.22;100.00
8398;BME280;4236;54.504;9.588;2023-09-12T05:38:34;101182.41;;;20.25;100.00
8398;BME280;4236;54.504;9.588;2023-09-12T05:41:02;101187.91;;;20.30;100.00
8398;BME280;4236;54.504;9.588;2023-09-12T05:43:29;101177.91;;;20.30;100.00
8398;BME280;4236;54.504;9.588;2023-09-12T05:45:58;101192.56;;;20.34;100.00
8398;BME280;4236;54.504;9.588;2023-09-12T05:48:26;101193.38;;;20.35;100.00
8398;BME280;4236;54.504;9.588;2023-09-12T05:50:54;101208.41;;;20.42;100.00
8398;BME280;4236;54.504;9.588;2023-09-12T05:53:22;101210.63;;;20.46;100.00
8398;BME280;4236;54.504;9.588;2023-09-12T05:55:49;101200.84;;;20.45;100.00
8398;BME280;4236;54.504;9.588;2023-09-12T05:58:17;101203.88;;;20.48;100.00
8398;BME280;4236;54.504;9.588;2023-09-12T06:00:45;101209.63;;;20.52;100.00
8398;BME280;4236;54.504;9.588;2023-09-12T06:03:16;101211.84;;;20.55;100.00
8398;BME280;4236;54.504;9.588;2023-09-12T06:05:44;101215.91;;;20.57;100.00
8398;BME280;4236;54.504;9.588;2023-09-12T06:08:11;101212.72;;;20.60;100.00
8398;BME280;4236;54.504;9.588;2023-09-12T06:10:39;101215.97;;;20.62;100.00
8398;BME280;4236;54.504;9.588;2023-09-12T06:13:07;101215.75;;;20.64;100.00
8398;BME280;4236;54.504;9.588;2023-09-12T06:15:38;101214.97;;;20.68;100.00
8398;BME280;4236;54.504;9.588;2023-09-12T06:18:07;101220.78;;;20.77;100.00
8398;BME280;4236;54.504;9.588;2023-09-12T06:20:36;101227.06;;;20.82;100.00
8398;BME280;4236;54.504;9.588;2023-09-12T06:23:04;101220.81;;;20.82;100.00
8398;BME280;4236;54.504;9.588;2023-09-12T06:25:32;101223.84;;;20.85;100.00
8398;BME280;4236;54.504;9.588;2023-09-12T06:28:00;101226.38;;;20.92;100.00
8398;BME280;4236;54.504;9.588;2023-09-12T06:30:28;101234.56;;;20.97;100.00
8398;BME280;4236;54.504;9.588;2023-09-12T06:32:55;101243.84;;;21.01;100.00
8398;BME280;4236;54.504;9.588;2023-09-12T06:35:23;101242.50;;;21.04;100.00
8398;BME280;4236;54.504;9.588;2023-09-12T06:37:53;101245.22;;;21.04;100.00
8398;BME280;4236;54.504;9.588;2023-09-12T06:40:22;101240.31;;;21.01;100.00
8398;BME280;4236;54.504;9.588;2023-09-12T06:42:50;101239.25;;;21.02;100.00
8398;BME280;4236;54.504;9.588;2023-09-12T06:45:18;101240.91;;;21.03;100.00
8398;BME280;4236;54.504;9.588;2023-09-12T06:47:45;101235.75;;;21.06;100.00
8398;BME280;4236;54.504;9.588;2023-09-12T06:50:13;101235.59;;;21.13;100.00
8398;BME280;4236;54.504;9.588;2023-09-12T06:52:42;101245.19;;;21.20;100.00
8398;BME280;4236;54.504;9.588;2023-09-12T06:55:11;101246.00;;;21.21;100.00
8398;BME280;4236;54.504;9.588;2023-09-12T06:57:38;101236.78;;;21.22;100.00
8398;BME280;4236;54.504;9.588;2023-09-12T07:00:07;101248.41;;;21.17;100.00
8398;BME280;4236;54.504;9.588;2023-09-12T07:02:36;101243.53;;;21.19;100.00
8398;BME280;4236;54.504;9.588;2023-09-12T07:05:04;101231.56;;;21.15;100.00
8398;BME280;4236;54.504;9.588;2023-09-12T07:07:32;101228.84;;;21.15;100.00
8398;BME280;4236;54.504;9.588;2023-09-12T07:10:00;101223.69;;;21.14;100.00
8398;BME280;4236;54.504;9.588;2023-09-12T07:12:49;101236.75;;;21.17;100.00
8398;BME280;4236;54.504;9.588;2023-09-12T07:15:17;101216.88;;;21.11;100.00
8398;BME280;4236;54.504;9.588;2023-09-12T07:17:45;101225.63;;;21.18;100.00
8398;BME280;4236;54.504;9.588;2023-09-12T07:20:13;101223.28;;;21.27;100.00
8398;BME280;4236;54.504;9.588;2023-09-12T07:22:43;101214.41;;;21.36;100.00
8398;BME280;4236;54.504;9.588;2023-09-12T07:25:12;101218.97;;;21.58;100.00
8398;BME280;4236;54.504;9.588;2023-09-12T07:27:40;101213.88;;;21.66;100.00
8398;BME280;4236;54.504;9.588;2023-09-12T07:30:10;101214.38;;;21.90;100.00
8398;BME280;4236;54.504;9.588;2023-09-12T07:32:38;101219.19;;;22.15;100.00
8398;BME280;4236;54.504;9.588;2023-09-12T07:35:06;101211.22;;;22.40;100.00
8398;BME280;4236;54.504;9.588;2023-09-12T07:37:34;101205.00;;;22.49;100.00
8398;BME280;4236;54.504;9.588;2023-09-12T07:40:02;101200.72;;;22.64;100.00
8398;BME280;4236;54.504;9.588;2023-09-12T07:42:35;101204.09;;;22.81;100.00
8398;BME280;4236;54.504;9.588;2023-09-12T07:45:03;101198.72;;;22.96;100.00
8398;BME280;4236;54.504;9.588;2023-09-12T07:47:33;101191.94;;;23.08;100.00
8398;BME280;4236;54.504;9.588;2023-09-12T07:50:01;101205.84;;;23.22;100.00
8398;BME280;4236;54.504;9.588;2023-09-12T07:52:29;101205.84;;;23.27;100.00
8398;BME280;4236;54.504;9.588;2023-09-12T07:54:59;101212.69;;;23.35;100.00
8398;BME280;4236;54.504;9.588;2023-09-12T07:57:27;101203.16;;;23.32;100.00
8398;BME280;4236;54.504;9.588;2023-09-12T07:59:56;101205.06;;;23.32;100.00
8398;BME280;4236;54.504;9.588;2023-09-12T08:02:23;101206.44;;;23.39;100.00
8398;BME280;4236;54.504;9.588;2023-09-12T08:04:52;101209.19;;;23.49;100.00
8398;BME280;4236;54.504;9.588;2023-09-12T08:07:21;101200.75;;;23.61;100.00
8398;BME280;4236;54.504;9.588;2023-09-12T08:09:50;101187.97;;;23.56;100.00
8398;BME280;4236;54.504;9.588;2023-09-12T08:12:20;101193.94;;;23.58;100.00
8398;BME280;4236;54.504;9.588;2023-09-12T08:14:48;101197.22;;;23.60;100.00
8398;BME280;4236;54.504;9.588;2023-09-12T08:17:16;101195.31;;;23.71;100.00
8398;BME280;4236;54.504;9.588;2023-09-12T08:19:44;101197.22;;;23.71;100.00
8398;BME280;4236;54.504;9.588;2023-09-12T08:22:13;101190.13;;;23.69;100.00
8398;BME280;4236;54.504;9.588;2023-09-12T08:24:40;101191.75;;;23.81;100.00
8398;BME280;4236;54.504;9.588;2023-09-12T08:27:08;101198.56;;;23.93;100.00
8398;BME280;4236;54.504;9.588;2023-09-12T08:29:36;101194.19;;;24.07;100.00
8398;BME280;4236;54.504;9.588;2023-09-12T08:32:04;101186.03;;;24.12;100.00
8398;BME280;4236;54.504;9.588;2023-09-12T08:34:32;101196.38;;;24.31;100.00
8398;BME280;4236;54.504;9.588;2023-09-12T08:37:00;101194.94;;;24.43;100.00
8398;BME280;4236;54.504;9.588;2023-09-12T08:39:40;101198.19;;;24.55;100.00
8398;BME280;4236;54.504;9.588;2023-09-12T08:42:12;101204.75;;;24.54;100.00
8398;BME280;4236;54.504;9.588;2023-09-12T08:44:40;101203.34;;;24.62;100.00
8398;BME280;4236;54.504;9.588;2023-09-12T08:47:09;101204.44;;;24.61;100.00
8398;BME280;4236;54.504;9.588;2023-09-12T08:49:38;101201.97;;;24.69;100.00
8398;BME280;4236;54.504;9.588;2023-09-12T08:52:08;101207.94;;;24.82;100.00
8398;BME280;4236;54.504;9.588;2023-09-12T08:54:37;101211.47;;;24.82;100.00
8398;BME280;4236;54.504;9.588;2023-09-12T08:57:06;101207.06;;;24.91;100.00
8398;BME280;4236;54.504;9.588;2023-09-12T08:59:34;101211.44;;;24.92;100.00
8398;BME280;4236;54.504;9.588;2023-09-12T09:02:06;101217.69;;;24.93;100.00
8398;BME280;4236;54.504;9.588;2023-09-12T09:04:35;101211.34;;;25.07;100.00
8398;BME280;4236;54.504;9.588;2023-09-12T09:07:04;101215.66;;;25.18;100.00
8398;BME280;4236;54.504;9.588;2023-09-12T09:09:32;101218.88;;;25.25;100.00
8398;BME280;4236;54.504;9.588;2023-09-12T09:12:06;101214.53;;;25.24;100.00
8398;BME280;4236;54.504;9.588;2023-09-12T09:14:34;101211.53;;;25.26;100.00
8398;BME280;4236;54.504;9.588;2023-09-12T09:17:02;101215.91;;;25.22;100.00
8398;BME280;4236;54.504;9.588;2023-09-12T09:19:40;101219.97;;;25.24;100.00
8398;BME280;4236;54.504;9.588;2023-09-12T09:22:09;101219.41;;;25.27;100.00
8398;BME280;4236;54.504;9.588;2023-09-12T09:24:36;101223.53;;;25.25;100.00
8398;BME280;4236;54.504;9.588;2023-09-12T09:27:05;101219.16;;;25.24;100.00
8398;BME280;4236;54.504;9.588;2023-09-12T09:29:45;101218.72;;;25.07;100.00
8398;BME280;4236;54.504;9.588;2023-09-12T09:32:18;101224.25;;;24.92;100.00
8398;BME280;4236;54.504;9.588;2023-09-12T09:34:48;101222.66;;;24.81;100.00
8398;BME280;4236;54.504;9.588;2023-09-12T09:37:16;101228.38;;;24.74;100.00
8398;BME280;4236;54.504;9.588;2023-09-12T09:39:47;101225.22;;;24.52;100.00
8398;BME280;4236;54.504;9.588;2023-09-12T09:42:20;101221.13;;;24.44;100.00
8398;BME280;4236;54.504;9.588;2023-09-12T09:44:48;101233.97;;;24.29;100.00
8398;BME280;4236;54.504;9.588;2023-09-12T09:47:18;101228.00;;;24.21;100.00
8398;BME280;4236;54.504;9.588;2023-09-12T09:49:46;101233.44;;;24.21;100.00
8398;BME280;4236;54.504;9.588;2023-09-12T09:52:13;101235.34;;;24.21;100.00
8398;BME280;4236;54.504;9.588;2023-09-12T09:54:43;101226.34;;;24.26;100.00
8398;BME280;4236;54.504;9.588;2023-09-12T09:57:12;101232.09;;;24.19;100.00
8398;BME280;4236;54.504;9.588;2023-09-12T09:59:41;101236.69;;;24.34;100.00
8398;BME280;4236;54.504;9.588;2023-09-12T10:02:16;101233.03;;;24.68;100.00
8398;BME280;4236;54.504;9.588;2023-09-12T10:04:48;101229.75;;;24.87;100.00
8398;BME280;4236;54.504;9.588;2023-09-12T10:07:27;101215.16;;;25.11;100.00
8398;BME280;4236;54.504;9.588;2023-09-12T10:09:56;101216.72;;;25.22;100.00
8398;BME280;4236;54.504;9.588;2023-09-12T10:12:25;101223.41;;;25.50;100.00
8398;BME280;4236;54.504;9.588;2023-09-12T10:14:57;101230.47;;;25.56;100.00
8398;BME280;4236;54.504;9.588;2023-09-12T10:17:30;101222.44;;;25.26;100.00
8398;BME280;4236;54.504;9.588;2023-09-12T10:20:02;101228.81;;;25.11;100.00
8398;BME280;4236;54.504;9.588;2023-09-12T10:22:34;101244.31;;;25.16;100.00
8398;BME280;4236;54.504;9.588;2023-09-12T10:25:05;101242.84;;;25.33;100.00
8398;BME280;4236;54.504;9.588;2023-09-12T10:27:33;101251.81;;;25.44;100.00
8398;BME280;4236;54.504;9.588;2023-09-12T10:30:04;101241.28;;;25.66;100.00
8398;BME280;4236;54.504;9.588;2023-09-12T10:32:33;101233.84;;;25.77;100.00
8398;BME280;4236;54.504;9.588;2023-09-12T10:35:02;101240.22;;;25.96;100.00
8398;BME280;4236;54.504;9.588;2023-09-12T10:37:31;101245.69;;;25.96;100.00
8398;BME280;4236;54.504;9.588;2023-09-12T10:40:05;101243.72;;;26.35;100.00
8398;BME280;4236;54.504;9.588;2023-09-12T10:42:35;101243.31;;;26.47;100.00
8398;BME280;4236;54.504;9.588;2023-09-12T10:45:06;101236.00;;;26.66;100.00
8398;BME280;4236;54.504;9.588;2023-09-12T10:47:35;101234.44;;;26.60;100.00
8398;BME280;4236;54.504;9.588;2023-09-12T10:50:03;101238.09;;;26.51;100.00
8398;BME280;4236;54.504;9.588;2023-09-12T10:52:31;101242.22;;;26.48;100.00
8398;BME280;4236;54.504;9.588;2023-09-12T10:55:04;101244.81;;;26.34;100.00
8398;BME280;4236;54.504;9.588;2023-09-12T10:57:33;101238.91;;;26.51;100.00
8398;BME280;4236;54.504;9.588;2023-09-12T11:00:12;101234.59;;;26.45;100.00
8398;BME280;4236;54.504;9.588;2023-09-12T11:02:41;101240.00;;;26.50;100.00
8398;BME280;4236;54.504;9.588;2023-09-12T11:05:50;101250.50;;;26.67;100.00
8398;BME280;4236;54.504;9.588;2023-09-12T11:08:19;101239.41;;;26.77;100.00
8398;BME280;4236;54.504;9.588;2023-09-12T11:11:16;101230.03;;;26.88;100.00
8398;BME280;4236;54.504;9.588;2023-09-12T11:13:44;101226.13;;;27.13;100.00
8398;BME280;4236;54.504;9.588;2023-09-12T11:16:16;101229.66;;;27.13;100.00
8398;BME280;4236;54.504;9.588;2023-09-12T11:19:15;101222.63;;;27.07;100.00
8398;BME280;4236;54.504;9.588;2023-09-12T11:21:46;101222.34;;;27.09;100.00
8398;BME280;4236;54.504;9.588;2023-09-12T11:24:15;101222.25;;;26.95;100.00
8398;BME280;4236;54.504;9.588;2023-09-12T11:26:54;101223.50;;;26.84;100.00
8398;BME280;4236;54.504;9.588;2023-09-12T11:29:22;101202.94;;;26.86;100.00
8398;BME280;4236;54.504;9.588;2023-09-12T11:31:54;101208.28;;;26.97;100.00
8398;BME280;4236;54.504;9.588;2023-09-12T11:34:28;101204.72;;;26.96;100.00
8398;BME280;4236;54.504;9.588;2023-09-12T11:36:57;101207.09;;;27.21;100.00
8398;BME280;4236;54.504;9.588;2023-09-12T11:39:29;101208.66;;;27.27;100.00
8398;BME280;4236;54.504;9.588;2023-09-12T11:41:59;101206.22;;;27.26;100.00
8398;BME280;4236;54.504;9.588;2023-09-12T11:44:28;101208.38;;;27.29;100.00
8398;BME280;4236;54.504;9.588;2023-09-12T11:46:59;101203.72;;;27.48;100.00
8398;BME280;4236;54.504;9.588;2023-09-12T11:49:35;101205.66;;;27.48;100.00
8398;BME280;4236;54.504;9.588;2023-09-12T11:52:08;101205.25;;;27.17;100.00
8398;BME280;4236;54.504;9.588;2023-09-12T11:54:36;101206.97;;;27.31;100.00
8398;BME280;4236;54.504;9.588;2023-09-12T11:57:04;101207.28;;;27.30;100.00
8398;BME280;4236;54.504;9.588;2023-09-12T11:59:32;101202.59;;;27.30;100.00
8398;BME280;4236;54.504;9.588;2023-09-12T12:02:06;101194.38;;;27.30;100.00
8398;BME280;4236;54.504;9.588;2023-09-12T12:04:35;101192.03;;;27.42;100.00
8398;BME280;4236;54.504;9.588;2023-09-12T12:07:06;101195.66;;;27.57;100.00
8398;BME280;4236;54.504;9.588;2023-09-12T12:09:34;101200.88;;;27.34;100.00
8398;BME280;4236;54.504;9.588;2023-09-12T12:12:10;101199.78;;;27.35;100.00
8398;BME280;4236;54.504;9.588;2023-09-12T12:14:39;101198.66;;;27.36;100.00
8398;BME280;4236;54.504;9.588;2023-09-12T12:17:09;101205.72;;;27.24;100.00
8398;BME280;4236;54.504;9.588;2023-09-12T12:19:38;101202.66;;;27.07;100.00
8398;BME280;4236;54.504;9.588;2023-09-12T12:22:06;101201.59;;;26.84;100.00
8398;BME280;4236;54.504;9.588;2023-09-12T12:24:37;101195.91;;;26.80;100.00
8398;BME280;4236;54.504;9.588;2023-09-12T12:27:05;101197.22;;;26.83;100.00
8398;BME280;4236;54.504;9.588;2023-09-12T12:29:34;101197.81;;;26.80;100.00
8398;BME280;4236;54.504;9.588;2023-09-12T12:32:03;101201.59;;;26.84;100.00
8398;BME280;4236;54.504;9.588;2023-09-12T12:34:33;101196.72;;;26.81;100.00
8398;BME280;4236;54.504;9.588;2023-09-12T12:37:21;101193.78;;;26.72;100.00
8398;BME280;4236;54.504;9.588;2023-09-12T12:39:48;101200.28;;;26.81;100.00
8398;BME280;4236;54.504;9.588;2023-09-12T12:42:16;101188.97;;;26.88;100.00
8398;BME280;4236;54.504;9.588;2023-09-12T12:44:44;101187.63;;;27.04;100.00
8398;BME280;4236;54.504;9.588;2023-09-12T12:47:12;101181.13;;;27.00;100.00
8398;BME280;4236;54.504;9.588;2023-09-12T12:49:41;101182.00;;;26.96;100.00
8398;BME280;4236;54.504;9.588;2023-09-12T12:52:10;101190.59;;;27.08;100.00
8398;BME280;4236;54.504;9.588;2023-09-12T12:54:38;101179.44;;;27.04;100.00
8398;BME280;4236;54.504;9.588;2023-09-12T12:57:06;101182.41;;;27.08;100.00
8398;BME280;4236;54.504;9.588;2023-09-12T12:59:33;101172.59;;;27.39;100.00
8398;BME280;4236;54.504;9.588;2023-09-12T13:02:03;101168.25;;;28.02;100.00
8398;BME280;4236;54.504;9.588;2023-09-12T13:04:36;101168.63;;;27.82;100.00
8398;BME280;4236;54.504;9.588;2023-09-12T13:07:05;101172.97;;;28.16;100.00
8398;BME280;4236;54.504;9.588;2023-09-12T13:09:33;101166.97;;;28.14;96.96
8398;BME280;4236;54.504;9.588;2023-09-12T13:12:01;101164.31;;;28.09;99.10